createdAt,value
2023-04-09T00:02:04.018Z,34.72
2023-04-09T00:07:06.826Z,35.97
2023-04-09T00:12:09.798Z,34.78
2023-04-09T00:17:13.964Z,33.42
2023-04-09T00:22:16.774Z,32.00
2023-04-09T00:27:19.541Z,33.25
2023-04-09T00:32:23.766Z,29.73
2023-04-09T00:37:26.798Z,31.38
2023-04-09T00:42:32.946Z,33.45
2023-04-09T00:47:37.513Z,32.92
2023-04-09T00:52:40.609Z,34.05
2023-04-09T00:57:43.403Z,33.85
2023-04-09T01:02:48.512Z,30.75
2023-04-09T01:08:00.631Z,29.95
2023-04-09T01:13:10.256Z,28.17
2023-04-09T01:18:20.655Z,28.00
2023-04-09T01:23:33.888Z,29.63
2023-04-09T01:28:42.090Z,28.60
2023-04-09T01:33:46.016Z,28.33
2023-04-09T01:38:51.570Z,27.98
2023-04-09T01:43:56.901Z,25.13
2023-04-09T01:49:00.679Z,26.33
2023-04-09T01:54:05.323Z,23.27
2023-04-09T01:59:09.493Z,20.98
2023-04-09T02:04:18.785Z,17.83
2023-04-09T02:09:24.962Z,19.00
2023-04-09T02:14:30.799Z,21.38
2023-04-09T02:19:40.725Z,20.52
2023-04-09T02:24:43.615Z,21.05
2023-04-09T02:29:47.750Z,22.33
2023-04-09T02:34:50.592Z,21.83
2023-04-09T02:39:53.312Z,21.75
2023-04-09T02:44:57.707Z,23.02
2023-04-09T02:50:00.962Z,22.70
2023-04-09T02:55:08.219Z,21.30
2023-04-09T03:00:13.966Z,21.88
2023-04-09T03:05:17.056Z,22.60
2023-04-09T03:10:19.906Z,23.25
2023-04-09T03:15:24.087Z,21.67
2023-04-09T03:20:26.827Z,20.75
2023-04-09T03:25:29.789Z,20.50
2023-04-09T03:30:35.026Z,20.48
2023-04-09T03:35:40.291Z,19.45
2023-04-09T03:40:43.700Z,20.27
2023-04-09T03:45:47.873Z,20.05
2023-04-09T03:51:02.171Z,21.83
2023-04-09T03:56:13.372Z,22.17
2023-04-09T04:01:18.036Z,22.50
2023-04-09T04:06:31.267Z,24.15
2023-04-09T04:11:50.269Z,26.60
2023-04-09T04:16:56.037Z,26.10
2023-04-09T04:22:03.386Z,26.65
2023-04-09T04:27:09.445Z,31.17
2023-04-09T04:32:13.709Z,29.00
2023-04-09T04:37:16.616Z,25.17
2023-04-09T04:42:19.686Z,24.73
2023-04-09T04:47:24.777Z,26.20
2023-04-09T04:52:27.664Z,26.48
2023-04-09T04:57:30.808Z,27.92
2023-04-09T05:02:35.589Z,26.60
2023-04-09T05:07:50.415Z,28.90
2023-04-09T05:12:53.342Z,28.80
2023-04-09T05:18:09.483Z,28.80
2023-04-09T05:23:13.057Z,25.92
2023-04-09T05:28:18.635Z,25.77
2023-04-09T05:33:25.968Z,25.88
2023-04-09T05:38:28.869Z,25.95
2023-04-09T05:43:34.561Z,26.90
2023-04-09T05:48:39.265Z,25.55
2023-04-09T05:53:42.801Z,25.35
2023-04-09T05:58:46.593Z,25.30
2023-04-09T06:03:51.841Z,26.60
2023-04-09T06:08:55.565Z,25.90
2023-04-09T06:13:58.455Z,25.77
2023-04-09T06:19:02.582Z,24.67
2023-04-09T06:24:06.029Z,25.10
2023-04-09T06:29:09.008Z,26.02
2023-04-09T06:34:13.097Z,26.27
2023-04-09T06:39:15.919Z,26.38
2023-04-09T06:44:19.927Z,24.83
2023-04-09T06:49:24.278Z,26.20
2023-04-09T06:54:27.178Z,24.65
2023-04-09T06:59:29.995Z,23.65
2023-04-09T07:04:36.526Z,25.13
2023-04-09T07:09:39.415Z,25.40
2023-04-09T07:14:42.222Z,24.85
2023-04-09T07:19:46.380Z,26.05
2023-04-09T07:24:54.216Z,23.35
2023-04-09T07:29:57.932Z,25.52
2023-04-09T07:35:04.493Z,24.98
2023-04-09T07:40:08.671Z,24.45
2023-04-09T07:45:11.517Z,25.27
2023-04-09T07:50:15.893Z,25.63
2023-04-09T07:55:20.138Z,25.95
2023-04-09T08:00:23.034Z,25.45
2023-04-09T08:05:28.287Z,27.50
2023-04-09T08:10:31.307Z,25.48
2023-04-09T08:15:34.092Z,25.95
2023-04-09T08:20:44.938Z,26.52
2023-04-09T08:25:48.047Z,24.17
2023-04-09T08:30:50.974Z,25.17
2023-04-09T08:35:55.450Z,24.35
2023-04-09T08:40:58.832Z,22.90
2023-04-09T08:46:03.329Z,21.77
2023-04-09T08:51:08.291Z,19.50
2023-04-09T08:56:15.789Z,19.05
2023-04-09T09:01:25.959Z,18.25
2023-04-09T09:06:33.067Z,19.25
2023-04-09T09:11:37.017Z,19.10
2023-04-09T09:16:43.245Z,17.35
2023-04-09T09:21:57.324Z,18.67
2023-04-09T09:27:00.597Z,18.20
2023-04-09T09:32:03.437Z,17.73
2023-04-09T09:37:27.949Z,16.70
2023-04-09T09:42:32.122Z,16.48
2023-04-09T09:47:36.462Z,15.40
2023-04-09T09:52:42.979Z,17.98
2023-04-09T09:57:48.541Z,17.50
2023-04-09T10:02:57.742Z,19.90
2023-04-09T10:08:04.448Z,19.17
2023-04-09T10:13:10.141Z,19.00
2023-04-09T10:18:13.071Z,21.58
2023-04-09T10:23:29.029Z,21.80
2023-04-09T10:28:32.204Z,21.05
2023-04-09T10:33:38.057Z,23.23
2023-04-09T10:38:46.828Z,22.10
2023-04-09T10:43:53.305Z,21.35
2023-04-09T10:49:13.530Z,21.27
2023-04-09T10:54:48.167Z,19.67
2023-04-09T10:59:52.660Z,20.25
2023-04-09T11:05:07.217Z,20.75
2023-04-09T11:10:43.464Z,20.80
2023-04-09T11:15:46.912Z,18.25
2023-04-09T11:20:50.135Z,19.67
2023-04-09T11:25:55.314Z,19.27
2023-04-09T11:30:58.260Z,19.75
2023-04-09T11:36:01.754Z,18.70
2023-04-09T11:41:06.243Z,20.65
2023-04-09T11:46:10.139Z,22.23
2023-04-09T11:51:13.086Z,19.17
2023-04-09T11:56:17.581Z,17.90
2023-04-09T12:01:23.274Z,17.85
2023-04-09T12:06:27.380Z,17.52
2023-04-09T12:11:32.963Z,19.35
2023-04-09T12:16:36.737Z,23.52
2023-04-09T12:21:49.707Z,26.65
2023-04-09T12:26:53.961Z,22.83
2023-04-09T12:32:23.902Z,24.10
2023-04-09T12:37:38.794Z,16.98
2023-04-09T12:42:43.749Z,23.77
2023-04-09T12:47:47.471Z,17.63
2023-04-09T12:52:52.780Z,16.83
2023-04-09T12:57:57.052Z,17.45
2023-04-09T13:03:00.164Z,18.50
2023-04-09T13:08:05.380Z,17.10
2023-04-09T13:13:12.860Z,16.67
2023-04-09T13:18:16.320Z,17.43
2023-04-09T13:23:19.153Z,15.77
2023-04-09T13:28:26.247Z,16.05
2023-04-09T13:33:33.075Z,16.05
2023-04-09T13:38:35.989Z,15.82
2023-04-09T13:43:40.741Z,14.45
2023-04-09T13:48:46.949Z,14.95
2023-04-09T13:53:49.932Z,15.38
2023-04-09T13:58:54.713Z,14.27
2023-04-09T14:03:59.603Z,15.23
2023-04-09T14:09:02.599Z,13.95
2023-04-09T14:14:10.071Z,14.10
2023-04-09T14:19:12.803Z,13.68
2023-04-09T14:24:18.626Z,15.25
2023-04-09T14:29:28.507Z,13.40
2023-04-09T14:34:31.710Z,13.68
2023-04-09T14:39:34.425Z,13.98
2023-04-09T14:44:38.993Z,13.63
2023-04-09T14:49:42.493Z,13.82
2023-04-09T14:54:46.654Z,14.05
2023-04-09T14:59:51.274Z,14.15
2023-04-09T15:04:54.229Z,14.63
2023-04-09T15:09:59.457Z,13.05
2023-04-09T15:15:07.088Z,13.40
2023-04-09T15:20:10.464Z,13.30
2023-04-09T15:25:14.486Z,13.05
2023-04-09T15:30:25.628Z,13.40
2023-04-09T15:35:31.720Z,12.73
2023-04-09T15:40:34.678Z,12.52
2023-04-09T15:45:39.010Z,11.80
2023-04-09T15:50:41.855Z,12.80
2023-04-09T15:55:44.614Z,12.68
2023-04-09T16:00:50.347Z,11.77
2023-04-09T16:05:53.146Z,11.90
2023-04-09T16:10:59.565Z,11.65
2023-04-09T16:16:04.088Z,13.35
2023-04-09T16:21:07.339Z,13.75
2023-04-09T16:26:11.435Z,14.02
2023-04-09T16:31:16.281Z,12.63
2023-04-09T16:36:19.366Z,12.80
2023-04-09T16:41:22.202Z,12.65
2023-04-09T16:46:26.375Z,12.57
2023-04-09T16:51:31.545Z,15.45
2023-04-09T16:56:34.390Z,13.48
2023-04-09T17:01:41.355Z,14.57
2023-04-09T17:06:44.350Z,17.42
2023-04-09T17:11:47.175Z,18.48
2023-04-09T17:16:52.891Z,17.05
2023-04-09T17:21:56.019Z,19.58
2023-04-09T17:27:02.909Z,18.98
2023-04-09T17:32:09.791Z,24.13
2023-04-09T17:37:12.602Z,23.30
2023-04-09T17:42:15.381Z,19.73
2023-04-09T17:47:20.293Z,20.83
2023-04-09T17:52:23.073Z,21.27
2023-04-09T17:57:25.884Z,19.35
2023-04-09T18:02:30.325Z,20.33
2023-04-09T18:07:34.351Z,23.60
2023-04-09T18:12:37.127Z,20.92
2023-04-09T18:17:41.492Z,22.42
2023-04-09T18:22:45.023Z,20.58
2023-04-09T18:27:47.884Z,20.17
2023-04-09T18:32:52.409Z,18.73
2023-04-09T18:37:55.255Z,19.17
2023-04-09T18:42:58.017Z,17.98
2023-04-09T18:48:05.570Z,19.45
2023-04-09T18:53:08.463Z,19.17
2023-04-09T18:58:14.951Z,19.77
2023-04-09T19:03:20.235Z,21.08
2023-04-09T19:08:23.570Z,22.17
2023-04-09T19:13:26.456Z,24.48
2023-04-09T19:18:31.427Z,27.60
2023-04-09T19:23:35.148Z,32.50
2023-04-09T19:28:38.243Z,32.05
2023-04-09T19:33:42.989Z,35.42
2023-04-09T19:38:45.931Z,38.25
2023-04-09T19:43:49.025Z,36.75
2023-04-09T19:48:53.414Z,35.17
2023-04-09T19:53:56.475Z,30.25
2023-04-09T19:58:59.323Z,24.95
2023-04-09T20:04:03.703Z,23.75
2023-04-09T20:09:07.274Z,22.48
2023-04-09T20:14:11.165Z,23.20
2023-04-09T20:19:15.303Z,22.60
2023-04-09T20:24:18.911Z,25.25
2023-04-09T20:29:21.736Z,27.00
2023-04-09T20:34:27.526Z,31.13
2023-04-09T20:39:31.264Z,31.55
2023-04-09T20:44:34.143Z,32.55
2023-04-09T20:49:38.584Z,31.60
2023-04-09T20:54:43.113Z,31.27
2023-04-09T20:59:46.194Z,33.40
2023-04-09T21:04:50.517Z,33.75
2023-04-09T21:09:53.645Z,32.80
2023-04-09T21:14:56.667Z,33.65
2023-04-09T21:20:01.334Z,32.45
2023-04-09T21:25:04.370Z,32.53
2023-04-09T21:30:08.476Z,33.33
2023-04-09T21:35:12.568Z,26.83
2023-04-09T21:40:17.692Z,25.17
2023-04-09T21:45:21.127Z,24.65
2023-04-09T21:50:25.377Z,22.48
2023-04-09T21:55:28.155Z,21.10
2023-04-09T22:00:30.903Z,19.35
2023-04-09T22:05:35.253Z,18.80
2023-04-09T22:10:38.080Z,18.70
2023-04-09T22:15:41.864Z,19.00
2023-04-09T22:20:46.164Z,18.40
2023-04-09T22:25:48.910Z,19.17
2023-04-09T22:30:53.701Z,18.55
2023-04-09T22:35:59.229Z,19.23
2023-04-09T22:41:02.262Z,20.23
2023-04-09T22:46:05.308Z,18.75
2023-04-09T22:51:09.451Z,18.42
2023-04-09T22:56:12.664Z,19.25
2023-04-09T23:01:15.511Z,19.80
2023-04-09T23:06:19.683Z,19.33
2023-04-09T23:11:22.408Z,20.90
2023-04-09T23:16:26.266Z,19.70
2023-04-09T23:21:31.070Z,19.95
2023-04-09T23:26:33.879Z,19.73
2023-04-09T23:31:36.860Z,19.90
2023-04-09T23:36:41.120Z,19.73
2023-04-09T23:41:44.026Z,20.73
2023-04-09T23:46:46.905Z,20.05
2023-04-09T23:51:51.886Z,20.60
2023-04-09T23:56:54.589Z,20.98
